Time;durP1;ratioP1;P1;durP2;ratioP2;P2;SDS_P1;SDS_P2;PMS_P1;PMS_P2;Temp;Humidity;BMP_temperature;BMP_pressure;BME280_temperature;BME280_humidity;BME280_pressure;Samples;Min_cycle;Max_cycle;Signal;HPM_P1;HPM_P2
2023/06/28 00:04:12;;;;;;;4.22;2.50;;;;;16.10;101427.00;;;;10407836;28;20205;-78
2023/06/28 00:09:13;;;;;;;5.78;2.63;;;;;16.10;101423.00;;;;10409582;28;21509;-78
2023/06/28 00:14:15;;;;;;;5.85;2.78;;;;;16.10;101420.00;;;;10407388;28;21229;-78
2023/06/28 00:19:26;;;;;;;8.40;2.72;;;;;16.20;101433.00;;;;10406236;28;20205;-77
2023/06/28 00:24:27;;;;;;;5.25;2.28;;;;;16.20;101431.00;;;;10410062;28;21294;-78
2023/06/28 00:29:29;;;;;;;6.30;2.67;;;;;16.20;101434.00;;;;10390796;28;20213;-78
2023/06/28 00:34:31;;;;;;;7.90;2.85;;;;;16.20;101436.00;;;;10393426;28;20308;-78
2023/06/28 00:39:34;;;;;;;5.50;3.03;;;;;16.20;101423.00;;;;10407685;28;20279;-78
2023/06/28 00:44:37;;;;;;;7.10;2.55;;;;;16.20;101431.00;;;;10407086;28;20196;-78
2023/06/28 00:49:41;;;;;;;5.50;2.70;;;;;16.10;101425.00;;;;10407163;28;20492;-78
2023/06/28 00:54:42;;;;;;;7.57;3.20;;;;;16.10;101434.00;;;;10410431;28;20228;-79
2023/06/28 00:59:45;;;;;;;6.95;2.63;;;;;16.00;101423.00;;;;10406516;28;20205;-78
2023/06/28 01:04:46;;;;;;;8.63;3.00;;;;;15.90;101420.00;;;;10404908;28;20816;-79
2023/06/28 01:09:48;;;;;;;9.45;3.10;;;;;15.90;101413.00;;;;10386762;28;20916;-79
2023/06/28 01:14:51;;;;;;;7.40;2.80;;;;;15.80;101412.00;;;;10395274;28;20217;-79
2023/06/28 01:19:54;;;;;;;8.77;2.90;;;;;15.80;101413.00;;;;10368992;28;20923;-78
2023/06/28 01:24:56;;;;;;;5.40;2.95;;;;;15.70;101415.00;;;;10382021;28;20575;-77
2023/06/28 01:29:57;;;;;;;7.32;2.83;;;;;15.70;101414.00;;;;10379284;28;20698;-77
2023/06/28 01:34:59;;;;;;;6.13;2.90;;;;;15.80;101397.00;;;;10407304;28;20327;-80
2023/06/28 01:40:02;;;;;;;9.00;3.17;;;;;15.80;101402.00;;;;10412271;28;20802;-81
2023/06/28 01:45:04;;;;;;;5.53;2.85;;;;;15.70;101402.00;;;;10384643;28;20211;-78
2023/06/28 01:50:06;;;;;;;6.80;2.93;;;;;15.60;101408.00;;;;10394994;28;20818;-78
2023/06/28 01:55:10;;;;;;;7.63;3.25;;;;;15.60;101409.00;;;;10395905;28;20529;-79
2023/06/28 02:00:15;;;;;;;6.23;3.00;;;;;15.60;101403.00;;;;10374655;28;20213;-78
2023/06/28 02:05:24;;;;;;;8.80;3.33;;;;;15.60;101401.00;;;;10380757;28;20206;-78
2023/06/28 02:10:25;;;;;;;9.25;3.33;;;;;15.60;101400.00;;;;10378572;28;20205;-78
2023/06/28 02:15:26;;;;;;;11.87;3.40;;;;;15.70;101396.00;;;;10407033;28;20295;-78
2023/06/28 02:20:28;;;;;;;14.50;3.77;;;;;15.60;101386.00;;;;10387694;28;20209;-80
2023/06/28 02:25:29;;;;;;;6.15;3.00;;;;;15.60;101384.00;;;;10390249;28;20213;-77
2023/06/28 02:30:30;;;;;;;7.72;3.15;;;;;15.70;101382.00;;;;10401671;28;20284;-77
2023/06/28 02:35:32;;;;;;;8.13;3.50;;;;;15.70;101385.00;;;;10394080;28;20225;-77
2023/06/28 02:40:34;;;;;;;6.68;3.50;;;;;15.70;101374.00;;;;10399006;28;20233;-78
2023/06/28 02:45:35;;;;;;;7.93;2.73;;;;;15.70;101373.00;;;;10394917;28;20718;-78
2023/06/28 02:50:37;;;;;;;12.05;3.30;;;;;15.70;101378.00;;;;10391412;28;20351;-77
2023/06/28 02:55:45;;;;;;;7.30;2.97;;;;;15.70;101378.00;;;;10386393;28;20483;-79
2023/06/28 03:00:49;;;;;;;5.55;2.80;;;;;15.70;101370.00;;;;10390893;28;21450;-77
2023/06/28 03:05:50;;;;;;;4.35;2.88;;;;;15.80;101370.00;;;;10370615;28;20217;-76
2023/06/28 03:10:52;;;;;;;5.63;2.80;;;;;15.80;101374.00;;;;10383374;28;20311;-77
2023/06/28 03:15:53;;;;;;;9.95;2.92;;;;;15.80;101378.00;;;;10407534;28;20647;-77
2023/06/28 03:20:55;;;;;;;8.05;3.10;;;;;15.80;101374.00;;;;10390157;28;20200;-80
2023/06/28 03:25:56;;;;;;;6.40;2.90;;;;;15.80;101373.00;;;;10405749;28;20209;-78
2023/06/28 03:30:58;;;;;;;8.10;2.80;;;;;15.80;101366.00;;;;10387682;28;20220;-77
2023/06/28 03:35:59;;;;;;;7.13;2.87;;;;;15.90;101359.00;;;;10409048;28;20928;-78
2023/06/28 03:41:00;;;;;;;5.95;2.80;;;;;15.90;101369.00;;;;10409101;28;20217;-81
2023/06/28 03:46:02;;;;;;;7.80;2.97;;;;;15.90;101364.00;;;;10401124;28;20210;-80
2023/06/28 03:51:03;;;;;;;7.85;3.15;;;;;15.90;101363.00;;;;10404130;28;20270;-77
2023/06/28 03:56:04;;;;;;;5.07;2.63;;;;;15.90;101363.00;;;;10399887;28;21412;-77
2023/06/28 04:01:05;;;;;;;7.93;2.42;;;;;15.90;101363.00;;;;10400055;28;20241;-78
2023/06/28 04:06:07;;;;;;;5.32;2.40;;;;;15.90;101363.00;;;;10404172;28;20323;-78
2023/06/28 04:11:08;;;;;;;10.43;2.90;;;;;15.90;101349.00;;;;10403372;28;20200;-79
2023/06/28 04:16:09;;;;;;;5.65;2.75;;;;;16.00;101340.00;;;;10387137;28;21444;-78
2023/06/28 04:21:10;;;;;;;6.20;2.42;;;;;16.00;101348.00;;;;10367551;28;20474;-78
2023/06/28 04:26:12;;;;;;;6.57;2.40;;;;;16.10;101346.00;;;;10407144;28;20376;-77
2023/06/28 04:31:14;;;;;;;7.10;2.65;;;;;16.10;101347.00;;;;10398591;28;20209;-77
2023/06/28 04:36:21;;;;;;;7.15;2.45;;;;;16.20;101342.00;;;;10386713;28;20234;-78
2023/06/28 04:41:23;;;;;;;6.82;3.08;;;;;16.30;101355.00;;;;10400992;28;20528;-79
2023/06/28 04:46:28;;;;;;;8.10;2.70;;;;;16.30;101356.00;;;;10396928;28;21362;-79
2023/06/28 04:51:29;;;;;;;7.90;2.95;;;;;16.40;101348.00;;;;10398499;28;20937;-83
2023/06/28 04:56:32;;;;;;;5.65;2.50;;;;;16.40;101347.00;;;;10390537;28;20224;-79
2023/06/28 05:01:34;;;;;;;6.40;2.60;;;;;16.50;101340.00;;;;10399317;28;20685;-81
2023/06/28 05:06:35;;;;;;;5.50;2.60;;;;;16.60;101347.00;;;;10387493;28;20205;-80
2023/06/28 05:11:37;;;;;;;8.50;2.70;;;;;16.70;101357.00;;;;10409619;28;20461;-78
2023/06/28 05:16:38;;;;;;;7.13;2.70;;;;;16.80;101346.00;;;;10400277;28;20228;-78
2023/06/28 05:21:39;;;;;;;6.68;2.97;;;;;16.80;101350.00;;;;10381973;28;20228;-81
2023/06/28 05:26:41;;;;;;;5.30;2.70;;;;;16.90;101348.00;;;;10381117;28;20220;-78
2023/06/28 05:31:42;;;;;;;7.07;2.80;;;;;17.00;101355.00;;;;10402552;28;20205;-78
2023/06/28 05:36:44;;;;;;;11.10;3.05;;;;;17.10;101350.00;;;;10397426;28;20229;-77
2023/06/28 05:41:45;;;;;;;11.80;3.20;;;;;17.10;101346.00;;;;10385151;28;20910;-78
2023/06/28 05:46:47;;;;;;;6.40;2.50;;;;;17.20;101350.00;;;;10410696;28;20332;-79
2023/06/28 05:51:48;;;;;;;8.27;3.50;;;;;17.30;101352.00;;;;10391699;28;20223;-79
2023/06/28 05:56:49;;;;;;;5.60;2.85;;;;;17.50;101341.00;;;;10407944;28;20234;-77
2023/06/28 06:01:50;;;;;;;5.60;2.70;;;;;17.80;101338.00;;;;10406821;28;20210;-78
2023/06/28 06:06:51;;;;;;;9.05;3.17;;;;;18.20;101331.00;;;;10418911;28;20629;-80
2023/06/28 06:11:53;;;;;;;8.25;2.97;;;;;18.50;101331.00;;;;10469282;28;20209;-78
2023/06/28 06:16:54;;;;;;;7.07;3.42;;;;;18.70;101331.00;;;;10489779;28;20208;-81
2023/06/28 06:21:55;;;;;;;9.25;3.20;;;;;18.80;101321.00;;;;10488920;28;20202;-81
2023/06/28 06:26:58;;;;;;;9.50;3.17;;;;;19.00;101327.00;;;;10451939;28;20205;-80
2023/06/28 06:31:59;;;;;;;6.60;3.38;;;;;19.20;101326.00;;;;10376204;28;20211;-79
2023/06/28 06:37:00;;;;;;;6.05;3.38;;;;;19.30;101331.00;;;;10408157;28;20245;-77
2023/06/28 06:42:02;;;;;;;11.68;3.50;;;;;19.60;101324.00;;;;10388116;28;20205;-77
2023/06/28 06:47:03;;;;;;;8.35;3.70;;;;;20.00;101333.00;;;;10402053;28;21101;-77
2023/06/28 06:52:05;;;;;;;8.52;3.30;;;;;20.40;101335.00;;;;10400642;28;20216;-77
2023/06/28 06:57:07;;;;;;;9.80;3.55;;;;;20.50;101345.00;;;;10402710;28;20225;-76
2023/06/28 07:02:08;;;;;;;5.20;3.55;;;;;20.50;101339.00;;;;10407330;28;20213;-78
2023/06/28 07:07:09;;;;;;;7.65;3.97;;;;;20.70;101340.00;;;;10408762;28;20473;-77
2023/06/28 07:12:11;;;;;;;7.63;3.55;;;;;20.70;101334.00;;;;10397697;22;20238;-89
2023/06/28 07:17:13;;;;;;;12.55;4.32;;;;;20.90;101341.00;;;;10312839;28;20512;-88
2023/06/28 07:22:15;;;;;;;9.90;3.72;;;;;21.10;101343.00;;;;10317739;28;20213;-88
2023/06/28 07:27:17;;;;;;;7.90;3.80;;;;;21.40;101342.00;;;;10339516;28;21208;-88
2023/06/28 07:32:20;;;;;;;9.27;3.67;;;;;21.70;101343.00;;;;10342336;28;21430;-90
2023/06/28 07:37:22;;;;;;;11.82;3.67;;;;;22.20;101335.00;;;;10337251;28;20214;-89
2023/06/28 07:42:26;;;;;;;12.25;4.53;;;;;22.70;101334.00;;;;10311773;28;20215;-89
2023/06/28 07:47:28;;;;;;;9.48;3.67;;;;;23.30;101335.00;;;;10320429;28;20213;-89
2023/06/28 07:52:31;;;;;;;10.80;3.78;;;;;23.70;101342.00;;;;10300868;28;20203;-89
2023/06/28 07:57:35;;;;;;;10.45;3.50;;;;;23.60;101339.00;;;;10311900;28;20226;-89
2023/06/28 08:02:38;;;;;;;8.02;3.53;;;;;23.70;101331.00;;;;10318092;28;20218;-89
2023/06/28 08:07:40;;;;;;;7.07;3.50;;;;;24.00;101331.00;;;;10326445;28;20205;-89
2023/06/28 08:12:43;;;;;;;11.27;4.25;;;;;24.20;101342.00;;;;10305405;28;20333;-89
2023/06/28 08:17:47;;;;;;;11.13;3.88;;;;;24.70;101337.00;;;;10288411;28;20217;-89
2023/06/28 08:22:51;;;;;;;8.93;3.83;;;;;24.90;101339.00;;;;10306682;28;20206;-88
2023/06/28 08:27:56;;;;;;;8.38;3.80;;;;;24.20;101339.00;;;;10313633;28;20414;-89
2023/06/28 08:33:03;;;;;;;12.02;4.60;;;;;23.90;101336.00;;;;10330911;28;20226;-89
2023/06/28 08:38:05;;;;;;;10.85;4.25;;;;;24.50;101329.00;;;;10333561;28;20227;-89
2023/06/28 08:43:11;;;;;;;13.82;4.63;;;;;25.20;101330.00;;;;10308783;28;20207;-89
2023/06/28 08:48:14;;;;;;;11.82;4.68;;;;;26.00;101324.00;;;;10329404;28;20201;-89
2023/06/28 08:53:23;;;;;;;9.45;4.63;;;;;27.00;101336.00;;;;10311190;28;20230;-89
2023/06/28 08:58:26;;;;;;;6.65;4.00;;;;;28.40;101324.00;;;;10307506;28;20242;-88
2023/06/28 09:03:30;;;;;;;9.82;4.38;;;;;29.40;101318.00;;;;10318660;28;20846;-89
2023/06/28 09:08:36;;;;;;;9.63;4.90;;;;;30.20;101328.00;;;;10325573;28;21162;-89
2023/06/28 09:13:39;;;;;;;11.60;5.05;;;;;30.40;101314.00;;;;10322983;28;20233;-90
2023/06/28 09:18:42;;;;;;;12.98;5.53;;;;;30.90;101325.00;;;;10302032;28;20465;-90
2023/06/28 09:23:49;;;;;;;11.80;4.95;;;;;31.60;101325.00;;;;10336104;28;20961;-89
2023/06/28 09:28:50;;;;;;;15.45;5.68;;;;;32.20;101326.00;;;;10342349;28;20218;-90
2023/06/28 09:33:53;;;;;;;9.80;4.93;;;;;31.50;101326.00;;;;10308478;28;20292;-90
2023/06/28 09:39:03;;;;;;;11.73;5.50;;;;;30.80;101324.00;;;;10324423;28;20222;-91
2023/06/28 09:44:10;;;;;;;9.60;5.13;;;;;30.60;101311.00;;;;10338845;28;20191;-90
2023/06/28 09:49:23;;;;;;;11.52;5.20;;;;;31.10;101318.00;;;;10337552;28;20213;-90
2023/06/28 09:54:45;;;;;;;9.60;5.57;;;;;31.00;101322.00;;;;10328592;28;20277;-90
2023/06/28 09:59:48;;;;;;;12.60;5.55;;;;;30.70;101321.00;;;;10291788;28;20260;-90
2023/06/28 10:04:53;;;;;;;11.52;5.88;;;;;31.00;101309.00;;;;10318632;28;21472;-90
2023/06/28 10:09:55;;;;;;;13.02;6.60;;;;;31.10;101309.00;;;;10305534;28;20206;-90
2023/06/28 10:15:06;;;;;;;12.35;6.78;;;;;31.40;101301.00;;;;10410707;23;20239;-77
2023/06/28 10:20:08;;;;;;;11.15;6.60;;;;;30.10;101301.00;;;;10497877;28;20414;-77
2023/06/28 10:25:09;;;;;;;10.40;6.38;;;;;29.60;101299.00;;;;10481354;28;20272;-74
2023/06/28 10:35:35;;;;;;;11.35;6.15;;;;;29.90;101310.00;;;;10503956;23;20216;-77
2023/06/28 10:40:39;;;;;;;16.65;7.18;;;;;29.50;101307.00;;;;10545723;28;20189;-77
2023/06/28 10:45:40;;;;;;;12.85;6.78;;;;;30.90;101297.00;;;;10462987;28;20853;-79
2023/06/28 10:50:42;;;;;;;12.15;7.45;;;;;32.10;101292.00;;;;10378897;28;20208;-77
2023/06/28 10:56:03;;;;;;;11.00;7.40;;;;;31.80;101291.00;;;;10452940;28;20217;-80
2023/06/28 11:01:12;;;;;;;17.15;7.70;;;;;31.80;101289.00;;;;10487880;28;20288;-77
2023/06/28 11:06:14;;;;;;;13.65;7.50;;;;;31.80;101282.00;;;;10504797;28;20242;-77
2023/06/28 11:11:31;;;;;;;13.68;7.95;;;;;32.40;101271.00;;;;10486636;28;20285;-76
2023/06/28 11:16:35;;;;;;;9.00;7.50;;;;;30.60;101277.00;;;;10503125;28;20252;-77
2023/06/28 11:21:38;;;;;;;11.65;7.20;;;;;30.30;101286.00;;;;10503676;28;20193;-77
2023/06/28 11:26:41;;;;;;;11.88;7.65;;;;;29.10;101285.00;;;;10485042;28;20201;-72
2023/06/28 11:31:53;;;;;;;13.00;8.80;;;;;28.90;101285.00;;;;10484840;28;20192;-77
2023/06/28 11:36:55;;;;;;;18.33;8.75;;;;;27.70;101288.00;;;;10484751;28;20240;-77
2023/06/28 11:42:02;;;;;;;16.45;8.40;;;;;26.10;101278.00;;;;10484841;28;20197;-74
2023/06/28 11:47:04;;;;;;;13.70;8.65;;;;;25.60;101286.00;;;;10484296;28;20217;-74
2023/06/28 11:52:08;;;;;;;12.13;8.75;;;;;25.80;101278.00;;;;10483241;28;20677;-75
2023/06/28 11:57:11;;;;;;;14.23;8.10;;;;;26.50;101269.00;;;;10482853;28;20570;-75
2023/06/28 12:02:12;;;;;;;11.45;8.23;;;;;27.70;101279.00;;;;10499981;28;20249;-74
2023/06/28 12:07:13;;;;;;;14.45;9.18;;;;;27.80;101267.00;;;;10466400;28;20547;-74
2023/06/28 12:12:15;;;;;;;15.75;8.25;;;;;28.10;101272.00;;;;10482478;28;20189;-74
2023/06/28 12:17:17;;;;;;;10.05;7.90;;;;;27.90;101269.00;;;;10483566;28;20216;-74
2023/06/28 12:22:18;;;;;;;12.27;9.38;;;;;27.50;101266.00;;;;10483143;28;20204;-74
2023/06/28 12:27:19;;;;;;;11.85;8.93;;;;;27.20;101265.00;;;;10500039;28;20197;-75
2023/06/28 12:32:23;;;;;;;15.00;8.80;;;;;27.60;101266.00;;;;10499832;28;20655;-75
2023/06/28 12:37:42;;;;;;;9.85;8.52;;;;;27.70;101262.00;;;;10481746;28;20303;-75
2023/06/28 12:42:44;;;;;;;15.10;9.38;;;;;28.10;101260.00;;;;10500043;28;20193;-75
2023/06/28 12:47:46;;;;;;;12.75;8.82;;;;;28.00;101260.00;;;;10498919;28;20209;-75
2023/06/28 12:52:47;;;;;;;16.08;9.25;;;;;28.90;101259.00;;;;10382639;28;21344;-75
2023/06/28 12:57:48;;;;;;;16.90;9.82;;;;;28.50;101241.00;;;;10399388;28;20217;-76
2023/06/28 13:02:49;;;;;;;13.48;8.90;;;;;27.50;101255.00;;;;10399025;28;20343;-76
2023/06/28 13:07:51;;;;;;;11.43;8.85;;;;;27.20;101248.00;;;;10397569;28;20220;-76
2023/06/28 13:12:52;;;;;;;12.48;9.40;;;;;27.00;101250.00;;;;10404723;28;20982;-75
2023/06/28 13:17:53;;;;;;;15.07;10.80;;;;;27.60;101246.00;;;;10520321;28;20576;-74
2023/06/28 13:22:55;;;;;;;16.20;9.70;;;;;28.30;101245.00;;;;10541787;28;20197;-75
2023/06/28 13:27:56;;;;;;;16.77;10.43;;;;;28.20;101248.00;;;;10523940;28;20275;-75
2023/06/28 13:32:57;;;;;;;13.23;10.05;;;;;28.60;101249.00;;;;10540324;28;20650;-74
2023/06/28 13:37:58;;;;;;;16.75;10.75;;;;;28.80;101260.00;;;;10541044;28;20248;-79
2023/06/28 13:43:00;;;;;;;17.10;10.15;;;;;28.90;101253.00;;;;10540410;28;20193;-82
2023/06/28 13:48:01;;;;;;;16.02;10.55;;;;;29.30;101248.00;;;;10523178;28;20302;-76
2023/06/28 13:53:04;;;;;;;14.88;10.65;;;;;29.70;101248.00;;;;10540189;28;20201;-75
2023/06/28 13:58:05;;;;;;;17.25;12.10;;;;;29.30;101239.00;;;;10541370;28;20216;-83
2023/06/28 14:03:07;;;;;;;16.75;11.07;;;;;27.90;101239.00;;;;10509628;28;20216;-76
2023/06/28 14:08:09;;;;;;;16.92;11.40;;;;;26.40;101238.00;;;;10545903;28;20284;-75
2023/06/28 14:13:10;;;;;;;17.95;12.23;;;;;25.60;101250.00;;;;10544881;28;20196;-75
2023/06/28 14:18:12;;;;;;;14.90;11.50;;;;;25.10;101247.00;;;;10546257;28;20299;-75
2023/06/28 14:23:15;;;;;;;19.20;11.93;;;;;24.70;101243.00;;;;10545836;28;20200;-75
2023/06/28 14:28:17;;;;;;;16.27;12.75;;;;;24.70;101236.00;;;;10545749;28;20197;-74
2023/06/28 14:33:18;;;;;;;17.92;12.60;;;;;24.70;101238.00;;;;10524505;28;20208;-75
2023/06/28 14:38:19;;;;;;;12.88;11.02;;;;;24.80;101231.00;;;;10526937;28;20582;-74
2023/06/28 14:43:21;;;;;;;15.07;11.27;;;;;24.90;101229.00;;;;10539161;28;20218;-75
2023/06/28 14:48:22;;;;;;;16.38;10.93;;;;;25.00;101222.00;;;;10527666;28;20217;-75
2023/06/28 14:53:23;;;;;;;17.10;11.98;;;;;25.20;101227.00;;;;10512065;28;20284;-76
2023/06/28 14:58:25;;;;;;;17.00;11.90;;;;;25.20;101219.00;;;;10528545;28;20224;-74
2023/06/28 15:03:26;;;;;;;13.70;11.38;;;;;25.40;101214.00;;;;10447314;28;20209;-75
2023/06/28 15:08:30;;;;;;;15.45;10.82;;;;;25.50;101219.00;;;;10502312;28;20186;-74
2023/06/28 15:13:31;;;;;;;15.95;11.63;;;;;25.60;101207.00;;;;10420979;28;20610;-76
2023/06/28 15:18:33;;;;;;;15.60;11.02;;;;;25.40;101204.00;;;;10405807;28;21267;-76
2023/06/28 15:23:34;;;;;;;14.85;12.25;;;;;25.20;101208.00;;;;10403968;28;20205;-76
2023/06/28 15:28:36;;;;;;;16.67;11.40;;;;;24.80;101205.00;;;;10392968;28;20454;-77
2023/06/28 15:33:37;;;;;;;18.40;11.98;;;;;24.40;101199.00;;;;10468816;28;20201;-74
2023/06/28 15:38:38;;;;;;;16.55;12.38;;;;;24.00;101212.00;;;;10514782;28;20225;-74
2023/06/28 15:43:40;;;;;;;16.27;10.95;;;;;23.70;101201.00;;;;10484366;28;20189;-74
2023/06/28 15:48:41;;;;;;;16.92;10.68;;;;;23.50;101197.00;;;;10485090;28;20554;-74
2023/06/28 15:53:42;;;;;;;16.45;10.90;;;;;23.30;101205.00;;;;10500982;28;20264;-74
2023/06/28 15:58:44;;;;;;;14.90;10.93;;;;;23.20;101210.00;;;;10484670;28;20204;-73
2023/06/28 16:03:45;;;;;;;15.27;10.85;;;;;23.10;101212.00;;;;10501375;28;20190;-74
2023/06/28 16:08:46;;;;;;;15.77;10.35;;;;;23.10;101206.00;;;;10484491;28;20216;-74
2023/06/28 16:13:48;;;;;;;15.85;11.55;;;;;23.00;101212.00;;;;10500758;28;20239;-74
2023/06/28 16:18:49;;;;;;;17.45;12.35;;;;;23.00;101214.00;;;;10501640;28;20243;-74
2023/06/28 16:23:51;;;;;;;18.15;12.98;;;;;23.00;101207.00;;;;10499903;28;20220;-75
2023/06/28 16:28:52;;;;;;;18.15;13.18;;;;;22.90;101197.00;;;;10498815;28;20205;-74
2023/06/28 16:33:53;;;;;;;18.85;12.40;;;;;23.00;101219.00;;;;10499817;28;20311;-73
2023/06/28 16:38:55;;;;;;;18.33;12.70;;;;;23.00;101212.00;;;;10499936;28;20209;-74
2023/06/28 16:43:56;;;;;;;17.10;13.13;;;;;23.00;101215.00;;;;10500218;28;20201;-74
2023/06/28 16:48:57;;;;;;;17.70;12.93;;;;;23.00;101213.00;;;;10481482;28;20194;-74
2023/06/28 16:53:59;;;;;;;21.90;13.80;;;;;23.10;101203.00;;;;10481691;28;20224;-74
2023/06/28 16:59:00;;;;;;;17.85;14.05;;;;;23.20;101203.00;;;;10481208;28;20221;-74
2023/06/28 17:04:01;;;;;;;21.65;13.57;;;;;23.20;101187.00;;;;10499046;28;20185;-74
2023/06/28 17:09:03;;;;;;;18.42;12.75;;;;;23.10;101202.00;;;;10481229;28;20296;-75
2023/06/28 17:14:06;;;;;;;19.00;13.18;;;;;23.20;101203.00;;;;10480945;28;20224;-74
2023/06/28 17:19:08;;;;;;;18.38;12.52;;;;;23.30;101208.00;;;;10498226;28;20217;-74
2023/06/28 17:24:10;;;;;;;20.20;13.05;;;;;23.30;101202.00;;;;10498551;28;20193;-75
2023/06/28 17:29:11;;;;;;;17.40;12.43;;;;;23.40;101202.00;;;;10480830;28;20555;-75
2023/06/28 17:34:13;;;;;;;19.95;12.43;;;;;23.40;101198.00;;;;10501819;28;20235;-74
2023/06/28 17:39:14;;;;;;;18.80;11.68;;;;;23.30;101198.00;;;;10552463;28;20220;-74
2023/06/28 17:44:16;;;;;;;18.00;12.40;;;;;23.20;101201.00;;;;10536216;28;20238;-74
2023/06/28 17:49:17;;;;;;;17.92;11.75;;;;;23.20;101209.00;;;;10553389;28;20283;-74
2023/06/28 17:54:18;;;;;;;17.70;12.43;;;;;23.10;101203.00;;;;10543284;28;20197;-76
2023/06/28 17:59:20;;;;;;;15.75;11.73;;;;;23.10;101214.00;;;;10500391;28;20243;-74
2023/06/28 18:04:21;;;;;;;17.77;12.80;;;;;23.10;101211.00;;;;10492426;28;20205;-75
2023/06/28 18:09:23;;;;;;;18.73;14.07;;;;;23.20;101209.00;;;;10415759;28;21275;-74
2023/06/28 18:14:24;;;;;;;17.73;12.93;;;;;23.30;101212.00;;;;10553410;28;20201;-74
2023/06/28 18:19:26;;;;;;;19.60;13.98;;;;;23.20;101215.00;;;;10483030;28;20225;-76
2023/06/28 18:24:27;;;;;;;20.20;13.32;;;;;23.00;101210.00;;;;10435403;28;20531;-77
2023/06/28 18:29:29;;;;;;;18.10;13.55;;;;;22.90;101216.00;;;;10473317;28;20220;-76
2023/06/28 18:34:30;;;;;;;19.08;13.57;;;;;22.90;101215.00;;;;10483587;28;21102;-75
2023/06/28 18:39:31;;;;;;;18.25;13.60;;;;;22.80;101226.00;;;;10508230;28;20213;-75
2023/06/28 18:44:33;;;;;;;16.15;13.13;;;;;22.60;101223.00;;;;10508634;28;20200;-76
2023/06/28 18:49:34;;;;;;;17.33;13.27;;;;;22.50;101222.00;;;;10529542;28;20220;-75
2023/06/28 18:54:36;;;;;;;24.25;13.32;;;;;22.50;101208.00;;;;10544702;28;20189;-75
2023/06/28 18:59:37;;;;;;;21.60;13.45;;;;;22.40;101199.00;;;;10544856;28;20266;-75
2023/06/28 19:04:41;;;;;;;21.40;13.90;;;;;22.40;101203.00;;;;10543515;28;20705;-77
2023/06/28 19:09:42;;;;;;;19.70;13.45;;;;;22.30;101205.00;;;;10476673;28;20379;-75
2023/06/28 19:14:43;;;;;;;20.20;14.32;;;;;22.20;101209.00;;;;10502315;28;20217;-74
2023/06/28 19:19:45;;;;;;;18.55;13.70;;;;;22.20;101198.00;;;;10502026;28;20209;-74
2023/06/28 19:24:47;;;;;;;20.08;14.65;;;;;22.10;101196.00;;;;10468415;28;20190;-75
2023/06/28 19:29:48;;;;;;;23.42;14.48;;;;;22.00;101197.00;;;;10501428;28;20513;-75
2023/06/28 19:34:50;;;;;;;20.08;12.95;;;;;22.00;101195.00;;;;10502220;28;20200;-75
2023/06/28 19:39:53;;;;;;;20.17;14.25;;;;;21.90;101192.00;;;;10471196;28;20232;-76
2023/06/28 19:44:54;;;;;;;18.63;13.18;;;;;21.90;101194.00;;;;10447477;28;20280;-77
2023/06/28 19:49:55;;;;;;;18.58;12.68;;;;;21.80;101195.00;;;;10463901;28;20202;-75
2023/06/28 19:54:57;;;;;;;19.38;13.50;;;;;21.80;101194.00;;;;10494198;28;20198;-75
2023/06/28 19:59:58;;;;;;;18.48;13.15;;;;;21.70;101208.00;;;;10413517;28;21071;-76
2023/06/28 20:04:59;;;;;;;17.23;12.75;;;;;21.70;101210.00;;;;10399674;28;20204;-77
2023/06/28 20:10:02;;;;;;;17.48;12.13;;;;;21.60;101212.00;;;;10402727;28;20560;-77
2023/06/28 20:15:05;;;;;;;18.42;12.85;;;;;21.60;101213.00;;;;10398561;28;21412;-77
2023/06/28 20:20:09;;;;;;;19.52;13.15;;;;;21.50;101215.00;;;;10391297;28;20309;-77
2023/06/28 20:25:11;;;;;;;19.30;13.50;;;;;21.50;101209.00;;;;10417323;28;20254;-76
2023/06/28 20:30:41;;;;;;;20.52;13.50;;;;;21.50;101215.00;;;;10473579;28;20229;-74
2023/06/28 20:35:44;;;;;;;18.77;12.82;;;;;21.40;101216.00;;;;10496837;28;20222;-74
2023/06/28 20:40:45;;;;;;;19.15;13.80;;;;;21.40;101221.00;;;;10480293;28;21707;-76
2023/06/28 20:45:46;;;;;;;19.45;14.13;;;;;21.30;101221.00;;;;10423930;28;20569;-75
2023/06/28 20:50:48;;;;;;;20.90;13.55;;;;;21.30;101223.00;;;;10378111;28;20353;-76
2023/06/28 20:55:49;;;;;;;21.73;13.30;;;;;21.30;101223.00;;;;10445419;28;20284;-76
2023/06/28 21:00:51;;;;;;;19.90;12.75;;;;;21.30;101223.00;;;;10438269;28;21901;-74
2023/06/28 21:05:52;;;;;;;21.27;13.40;;;;;21.30;101217.00;;;;10426109;28;20285;-74
2023/06/28 21:10:53;;;;;;;19.98;13.82;;;;;21.20;101214.00;;;;10432175;28;20210;-76
2023/06/28 21:15:55;;;;;;;17.85;13.10;;;;;21.20;101209.00;;;;10444212;28;20324;-74
2023/06/28 21:20:57;;;;;;;18.27;13.45;;;;;21.20;101216.00;;;;10446578;28;20197;-76
2023/06/28 21:25:58;;;;;;;19.00;13.23;;;;;21.20;101211.00;;;;10438813;28;20243;-74
2023/06/28 21:30:59;;;;;;;20.23;14.40;;;;;21.20;101211.00;;;;10420593;28;20524;-76
2023/06/28 21:36:01;;;;;;;19.52;14.00;;;;;21.10;101204.00;;;;10421915;28;20216;-76
2023/06/28 21:41:02;;;;;;;18.60;13.70;;;;;21.10;101202.00;;;;10439772;28;20216;-74
2023/06/28 21:46:04;;;;;;;20.50;14.88;;;;;21.00;101202.00;;;;10431363;28;20307;-74
2023/06/28 21:51:05;;;;;;;19.05;13.70;;;;;21.00;101211.00;;;;10435376;28;20260;-76
2023/06/28 21:56:06;;;;;;;17.83;13.13;;;;;20.90;101208.00;;;;10440658;28;20217;-74
2023/06/28 22:01:11;;;;;;;22.48;15.05;;;;;20.90;101202.00;;;;10440637;28;20268;-75
2023/06/28 22:06:12;;;;;;;23.38;15.52;;;;;20.90;101204.00;;;;10440329;28;21227;-75
2023/06/28 22:11:13;;;;;;;22.20;14.80;;;;;20.80;101198.00;;;;10403844;28;20238;-73
2023/06/28 22:16:15;;;;;;;21.92;14.10;;;;;20.80;101196.00;;;;10422202;28;20248;-76
2023/06/28 22:21:17;;;;;;;21.27;14.35;;;;;20.80;101195.00;;;;10439530;28;20205;-75
2023/06/28 22:26:19;;;;;;;21.98;14.88;;;;;20.80;101185.00;;;;10504694;28;20216;-74
2023/06/28 22:31:20;;;;;;;23.17;15.93;;;;;20.80;101179.00;;;;10486714;28;20232;-74
2023/06/28 22:36:22;;;;;;;25.60;15.35;;;;;20.80;101178.00;;;;10479439;28;20205;-74
2023/06/28 22:41:23;;;;;;;21.20;15.75;;;;;20.70;101177.00;;;;10525521;28;20211;-74
2023/06/28 22:46:24;;;;;;;25.25;15.70;;;;;20.70;101176.00;;;;10505337;28;20280;-74
2023/06/28 22:51:26;;;;;;;24.08;15.82;;;;;20.60;101170.00;;;;10517475;28;20209;-74
2023/06/28 22:56:27;;;;;;;22.00;14.95;;;;;20.60;101166.00;;;;10473997;28;20217;-76
2023/06/28 23:01:28;;;;;;;23.60;15.25;;;;;20.60;101162.00;;;;10460567;28;20197;-77
2023/06/28 23:06:31;;;;;;;20.52;14.38;;;;;20.60;101157.00;;;;10427882;28;20213;-75
2023/06/28 23:11:32;;;;;;;19.38;14.90;;;;;20.60;101166.00;;;;10431926;28;20225;-75
2023/06/28 23:16:38;;;;;;;21.50;14.45;;;;;20.60;101162.00;;;;10444193;28;20367;-75
2023/06/28 23:21:39;;;;;;;18.05;14.50;;;;;20.50;101156.00;;;;10440287;28;20244;-75
2023/06/28 23:26:44;;;;;;;22.08;14.88;;;;;20.50;101156.00;;;;10400481;28;20201;-76
2023/06/28 23:31:45;;;;;;;24.17;14.75;;;;;20.50;101156.00;;;;10450267;28;20213;-74
2023/06/28 23:36:49;;;;;;;23.77;15.75;;;;;20.50;101156.00;;;;10450433;28;20216;-74
2023/06/28 23:41:50;;;;;;;17.17;13.90;;;;;20.40;101152.00;;;;10437393;28;20915;-75
2023/06/28 23:46:55;;;;;;;21.40;15.32;;;;;20.30;101164.00;;;;10437287;28;20205;-74
2023/06/28 23:51:57;;;;;;;19.33;14.43;;;;;20.30;101158.00;;;;10429940;28;20215;-76
2023/06/28 23:56:58;;;;;;;24.98;14.95;;;;;20.20;101151.00;;;;10425418;28;20224;-74
